Latest Weather Observations for Mangrove Mountain

IDN60801

Issued at 6:35 pm EDT Wednesday 22 October 2014 (issued every 30 minutes, with the page automatically refreshed every 10 minutes)

About weather observations | Map of weather stations | Latest weather observations for NSW | Other Formats
Station Details ID: 061375 Name: MANGROVE MOUNTAIN AWS Lat: -33.29 Lon: 151.21 Height: 305.0 m
Data from the previous 72 hours. | See also: Recent months at Mangrove Mountain
Date/Time
EDT
Temp
°C
App
Temp
°C
Dew
Point
Rel
Hum
%
Delta-T
°C
Wind Press
QNH
hPa
Press
MSL
hPa
Rain
since 9 am
mm
Dir
 
Spd
km/h
Gust
km/h
Spd
kts
Gust
kts
22/06:30pm 17.9 16.0 11.9 68 3.3 ENE 13 20 7 11 - - 0.0
22/06:00pm 19.0 17.3 12.3 65 3.8 ENE 13 19 7 10 - - 0.0
22/05:30pm 20.2 18.6 12.9 63 4.2 ENE 13 24 7 13 - - 0.0
22/05:00pm 20.8 19.5 12.5 59 4.7 NE 11 20 6 11 - - 0.0
22/04:30pm 21.6 19.9 13.5 60 4.7 E 15 20 8 11 - - 0.0
22/04:00pm 21.3 19.7 12.7 58 4.9 E 13 20 7 11 - - 0.0
22/03:30pm 21.8 20.7 12.1 54 5.5 NE 9 19 5 10 - - 0.0
22/03:00pm 22.0 20.4 11.4 51 6.0 NE 11 20 6 11 - - 0.0
22/02:30pm 21.6 20.1 10.7 50 6.1 NE 9 20 5 11 - - 0.0
22/02:00pm 21.2 20.4 11.2 53 5.6 ENE 6 15 3 8 - - 0.0
22/01:30pm 20.7 19.3 10.8 53 5.5 NNE 9 19 5 10 - - 0.0
22/01:00pm 19.7 17.7 10.1 54 5.2 NNE 11 19 6 10 - - 0.0
22/12:30pm 20.2 18.9 11.4 57 4.9 NE 9 19 5 10 - - 0.0
22/12:00pm 18.6 16.7 10.4 59 4.5 NNE 11 22 6 12 - - 0.0
22/11:30am 17.4 15.8 10.3 63 3.8 NNE 9 15 5 8 - - 0.0
22/11:00am 16.6 14.2 10.2 66 3.4 NNE 13 22 7 12 - - 0.0
22/10:30am 16.7 14.7 10.3 66 3.4 NNE 11 17 6 9 - - 0.0
22/10:00am 16.7 14.6 11.2 70 3.0 NE 13 22 7 12 - - 0.0
22/09:30am 15.9 14.7 11.5 75 2.4 NE 9 17 5 9 - - 0.0
22/09:00am 15.0 13.2 10.8 76 2.3 NNE 11 20 6 11 - - 0.0
22/08:30am 14.6 13.7 10.6 77 2.1 NE 6 9 3 5 - - 0.0
22/08:00am 13.7 13.1 10.5 81 1.7 NNE 4 7 2 4 - - 0.0
22/07:30am 12.5 12.6 10.2 86 1.2 CALM 0 0 0 0 - - 0.0
22/07:00am 11.8 12.0 10.4 91 0.7 CALM 0 0 0 0 - - 0.0
22/06:30am 11.1 11.2 10.0 93 0.6 CALM 0 0 0 0 - - 0.0
22/06:00am 11.3 11.5 10.5 95 0.4 CALM 0 2 0 1 - - 0.0
22/05:30am 10.9 11.0 10.0 94 0.5 CALM 0 0 0 0 - - 0.0
22/05:00am 10.9 11.0 10.1 95 0.4 CALM 0 0 0 0 - - 0.0
22/04:30am 10.8 10.8 9.9 94 0.5 CALM 0 0 0 0 - - 0.0
22/04:00am 11.3 11.1 10.4 94 0.5 E 2 2 1 1 - - 0.0
22/03:30am 11.5 11.3 10.4 93 0.6 E 2 4 1 2 - - 0.0
22/03:00am 11.5 11.6 10.2 92 0.7 CALM 0 0 0 0 - - 0.0
22/02:30am 11.7 11.8 10.3 91 0.7 CALM 0 2 0 1 - - 0.0
22/02:00am 11.6 11.7 10.0 90 0.8 CALM 0 0 0 0 - - 0.0
22/01:30am 11.9 12.0 10.1 89 0.9 CALM 0 0 0 0 - - 0.0
22/01:00am 12.0 12.1 10.1 88 1.0 CALM 0 4 0 2 - - 0.0
22/12:30am 12.1 12.2 10.2 88 1.0 CALM 0 2 0 1 - - 0.0
22/12:00am 12.3 12.0 10.2 87 1.1 NE 2 4 1 2 - - 0.0
 
Date/Time
EDT
Temp
°C
App
Temp
°C
Dew
Point
Rel
Hum
%
Delta-T
°C
Wind Press
QNH
hPa
Press
MSL
hPa
Rain
since 9 am
mm
Dir
 
Spd
km/h
Gust
km/h
Spd
kts
Gust
kts
21/11:30pm 12.2 12.4 10.4 89 0.9 CALM 0 0 0 0 - - 0.0
21/11:00pm 11.8 11.9 10.0 89 0.9 CALM 0 4 0 2 - - 0.0
21/10:30pm 12.2 12.3 10.3 88 1.0 CALM 0 4 0 2 - - 0.0
21/10:00pm 12.3 11.6 10.0 86 1.2 E 4 7 2 4 - - 0.0
21/09:30pm 12.6 12.3 10.1 85 1.3 E 2 6 1 3 - - 0.0
21/09:00pm 12.9 12.1 9.7 81 1.7 ESE 4 9 2 5 - - 0.0
21/08:30pm 13.1 12.6 9.4 78 1.9 E 2 6 1 3 - - 0.0
21/08:00pm 13.2 12.3 9.3 77 2.0 E 4 6 2 3 - - 0.0
21/07:30pm 13.2 12.3 9.1 76 2.1 ENE 4 7 2 4 - - 0.0
21/07:00pm 13.4 11.8 8.9 74 2.3 E 7 11 4 6 - - 0.0
21/06:30pm 13.7 11.5 9.4 75 2.2 E 11 17 6 9 - - 0.0
21/06:00pm 13.9 12.1 9.3 74 2.4 E 9 17 5 9 - - 0.0
21/05:30pm 14.1 12.3 9.3 73 2.5 ENE 9 19 5 10 - - 0.0
21/05:00pm 14.6 12.4 9.2 70 2.8 E 11 17 6 9 - - 0.0
21/04:30pm 14.9 12.6 9.1 68 3.0 E 11 19 6 10 - - 0.0
21/04:00pm 15.4 13.6 9.3 67 3.2 E 9 15 5 8 - - 0.0
21/03:30pm 15.3 13.5 9.4 68 3.1 E 9 15 5 8 - - 0.0
21/03:00pm 15.2 12.9 8.9 66 3.3 E 11 19 6 10 - - 0.0
21/02:30pm 15.8 13.8 8.5 62 3.8 E 9 13 5 7 - - 0.0
21/02:00pm 15.6 13.1 8.4 62 3.7 E 11 19 6 10 - - 0.0
21/01:30pm 16.1 13.3 8.6 61 3.9 E 13 20 7 11 - - 0.0
21/01:00pm 15.9 13.6 9.1 64 3.6 E 11 19 6 10 - - 0.0
21/12:30pm 15.4 13.1 9.1 66 3.3 ENE 11 19 6 10 - - 0.0
21/12:00pm 15.4 13.1 8.9 65 3.4 E 11 19 6 10 - - 0.0
21/11:30am 15.2 13.3 8.9 66 3.3 ESE 9 19 5 10 - - 0.0
21/11:00am 15.2 13.4 9.3 68 3.1 E 9 13 5 7 - - 0.0
21/10:30am 14.9 13.3 10.1 73 2.5 E 9 15 5 8 - - 0.0
21/10:00am 14.8 13.5 10.0 73 2.5 ESE 7 15 4 8 - - 0.0
21/09:30am 14.2 13.1 10.0 76 2.2 ESE 6 11 3 6 - - 0.0
21/09:00am 13.8 13.4 11.0 83 1.5 SE 4 7 2 4 - - 2.8
21/08:30am 13.3 12.5 11.2 87 1.1 SSE 6 9 3 5 - - 2.8
21/08:00am 12.6 12.2 11.0 90 0.9 SE 4 7 2 4 - - 2.8
21/07:30am 12.0 11.7 11.4 96 0.3 SE 4 6 2 3 - - 2.8
21/07:00am 11.5 11.1 11.2 98 0.2 SE 4 7 2 4 - - 2.8
21/06:30am 11.7 11.1 11.7 100 0.0 SSE 6 9 3 5 - - 2.8
21/06:00am 11.6 11.0 11.6 100 0.0 SSE 6 7 3 4 - - 2.8
21/05:30am 11.5 11.2 11.3 99 0.1 SSE 4 7 2 4 - - 2.8
21/05:00am 11.4 11.4 11.2 99 0.1 SE 2 4 1 2 - - 2.8
21/04:30am 11.5 10.8 11.3 99 0.1 ESE 6 9 3 5 - - 2.8
21/04:00am 11.7 10.5 11.7 100 0.0 SE 9 15 5 8 - - 2.6
21/03:30am 11.9 11.7 11.9 100 0.0 SSE 4 7 2 4 - - 2.6
21/03:00am 11.9 12.1 11.7 99 0.1 ESE 2 6 1 3 - - 2.2
21/02:30am 11.9 11.7 11.7 99 0.1 E 4 7 2 4 - - 2.2
21/02:00am 12.0 11.4 11.8 99 0.1 SE 6 9 3 5 - - 2.0
21/01:30am 12.0 11.4 11.8 99 0.1 SSE 6 7 3 4 - - 2.0
21/01:00am 12.0 11.8 11.8 99 0.1 ESE 4 7 2 4 - - 2.0
21/12:30am 12.2 11.7 12.0 99 0.1 E 6 7 3 4 - - 2.0
21/12:00am 12.2 11.7 12.2 100 0.0 SE 6 11 3 6 - - 2.0
 
Date/Time
EDT
Temp
°C
App
Temp
°C
Dew
Point
Rel
Hum
%
Delta-T
°C
Wind Press
QNH
hPa
Press
MSL
hPa
Rain
since 9 am
mm
Dir
 
Spd
km/h
Gust
km/h
Spd
kts
Gust
kts
20/11:30pm 12.3 12.2 12.1 99 0.1 ESE 4 7 2 4 - - 1.8
20/11:00pm 12.4 11.8 12.2 99 0.1 ESE 7 15 4 8 - - 1.6
20/10:30pm 12.5 12.1 12.3 99 0.1 SE 6 9 3 5 - - 1.6
20/10:00pm 12.4 11.8 12.2 99 0.1 SE 7 11 4 6 - - 1.4
20/09:30pm 12.5 12.0 12.2 98 0.2 SE 6 9 3 5 - - 1.4
20/09:00pm 12.6 12.1 12.1 97 0.3 SSE 6 9 3 5 - - 1.4
20/08:30pm 12.6 12.2 12.3 98 0.2 SE 6 9 3 5 - - 1.4
20/08:00pm 12.6 12.2 12.3 98 0.2 SE 6 11 3 6 - - 1.4
20/07:30pm 12.6 11.6 12.3 98 0.2 SE 9 13 5 7 - - 1.4
20/07:00pm 12.8 11.5 12.5 98 0.2 SSE 11 19 6 10 - - 1.2
20/06:30pm 13.1 12.2 12.6 97 0.3 SE 9 15 5 8 - - 1.0
20/06:00pm 13.1 11.1 12.8 98 0.2 SSE 15 24 8 13 - - 1.0
20/05:30pm 13.6 12.5 13.1 97 0.3 SSE 11 22 6 12 - - 1.0
20/05:00pm 13.8 12.8 13.5 98 0.2 SSE 11 19 6 10 - - 0.8
20/04:30pm 14.0 13.0 13.4 96 0.3 SSE 11 22 6 12 - - 0.6
20/04:00pm 14.7 14.1 13.6 93 0.6 SSE 9 19 5 10 - - 0.0
20/03:30pm 15.5 14.0 13.2 86 1.3 SSE 13 20 7 11 - - 0.0
20/03:00pm 15.8 14.3 13.1 84 1.5 S 13 22 7 12 - - 0.0
20/02:30pm 15.9 15.1 12.8 82 1.7 SSE 9 19 5 10 - - 0.0
20/02:00pm 15.1 12.9 12.1 82 1.7 SSE 15 30 8 16 - - 0.0
20/01:30pm 17.1 15.7 10.9 67 3.4 S 9 19 5 10 - - 0.0
20/01:00pm 16.3 15.1 11.5 73 2.6 S 9 17 5 9 - - 0.0
20/12:30pm 16.4 14.3 11.3 72 2.8 S 13 24 7 13 - - 0.0
20/12:00pm 16.0 14.0 11.4 74 2.5 S 13 20 7 11 - - 0.0
20/11:30am 15.4 12.2 11.8 79 2.0 S 20 33 11 18 - - 0.0
20/11:00am 16.6 13.5 11.5 72 2.8 SSE 19 32 10 17 - - 0.0
20/10:30am 16.4 13.6 11.3 72 2.8 S 17 33 9 18 - - 0.0
20/10:00am 16.8 13.7 11.5 71 2.9 SSE 19 30 10 16 - - 0.0
20/09:30am 16.3 13.5 11.5 73 2.6 S 17 32 9 17 - - 0.0
20/09:00am 16.6 13.7 12.4 76 2.3 S 19 32 10 17 - - 0.0
20/08:30am 15.9 13.5 12.5 80 1.9 S 17 30 9 16 - - 0.0
20/08:00am 15.9 12.3 13.0 83 1.6 SSE 24 43 13 23 - - 0.0
20/07:30am 15.6 13.6 14.0 90 0.9 S 17 28 9 15 - - 0.0
20/07:00am 14.8 12.5 11.8 82 1.6 S 15 28 8 15 - - 0.0
20/06:30am 13.5 12.3 10.3 81 1.7 NW 7 9 4 5 - - 0.0
20/06:00am 13.0 11.9 10.0 82 1.6 NW 6 9 3 5 - - 0.0
20/05:30am 12.8 11.8 10.2 84 1.4 NW 6 7 3 4 - - 0.0
20/05:00am 12.4 11.4 10.3 87 1.1 NNW 6 6 3 3 - - 0.0
20/04:30am 12.8 11.8 10.3 85 1.3 NNW 6 7 3 4 - - 0.0
20/04:00am 13.1 12.2 10.8 86 1.2 NW 6 7 3 4 - - 0.0
20/03:30am 13.0 12.0 10.4 84 1.4 NW 6 7 3 4 - - 0.0
20/03:00am 14.3 13.5 11.1 81 1.7 NW 6 7 3 4 - - 0.0
20/02:30am 14.1 13.4 11.3 83 1.5 NW 6 7 3 4 - - 0.0
20/02:00am 13.5 12.8 11.4 87 1.1 NW 6 7 3 4 - - 0.0
20/01:30am 13.8 13.0 11.1 84 1.4 NW 6 9 3 5 - - 0.0
20/01:00am 14.4 13.7 11.4 82 1.6 NW 6 7 3 4 - - 0.0
20/12:30am 14.6 13.8 11.0 79 1.9 NNW 6 7 3 4 - - 0.0
20/12:00am 14.8 14.3 10.8 77 2.1 NNW 4 7 2 4 - - 0.0
 
Date/Time
EDT
Temp
°C
App
Temp
°C
Dew
Point
Rel
Hum
%
Delta-T
°C
Wind Press
QNH
hPa
Press
MSL
hPa
Rain
since 9 am
mm
Dir
 
Spd
km/h
Gust
km/h
Spd
kts
Gust
kts
19/11:30pm 16.8 16.1 11.5 71 2.9 N 6 11 3 6 - - 0.0
19/11:00pm 16.6 15.9 12.0 74 2.6 NE 7 11 4 6 - - 0.0
19/10:30pm 16.7 15.2 12.0 74 2.6 NE 11 15 6 8 - - 0.0
19/10:00pm 16.9 15.9 12.2 74 2.6 NE 9 15 5 8 - - 0.0
19/09:30pm 16.6 15.7 12.6 77 2.2 ENE 9 15 5 8 - - 0.0
19/09:00pm 16.9 15.7 12.8 77 2.3 ENE 11 17 6 9 - - 0.0
19/08:30pm 16.7 15.5 12.8 78 2.2 ENE 11 17 6 9 - - 0.0
19/08:00pm 16.8 15.6 12.7 77 2.3 ENE 11 15 6 8 - - 0.0
19/07:30pm 17.5 16.2 12.4 72 2.9 ENE 11 17 6 9 - - 0.0
19/07:00pm 18.8 17.4 12.1 65 3.8 ENE 11 17 6 9 - - 0.0

Other Formats:

Comma delimited format used in spreadsheet applications
http://www.bom.gov.au/fwo/IDN60801/IDN60801.95774.axf

JavaScript Object Notation format (JSON) in row-major order
http://www.bom.gov.au/fwo/IDN60801/IDN60801.95774.json